createdAt,value
2022-08-14T00:02:09.442Z,25.30
2022-08-14T00:04:59.512Z,25.20
2022-08-14T00:07:55.855Z,25.10
2022-08-14T00:10:52.291Z,25.00
2022-08-14T00:13:35.548Z,25.00
2022-08-14T00:16:41.784Z,25.20
2022-08-14T00:19:33.564Z,25.20
2022-08-14T00:22:56.508Z,25.20
2022-08-14T00:25:42.472Z,25.10
2022-08-14T00:28:35.186Z,25.10
2022-08-14T00:31:35.305Z,25.00
2022-08-14T00:34:37.846Z,24.80
2022-08-14T00:37:35.548Z,24.70
2022-08-14T00:40:33.188Z,24.70
2022-08-14T00:43:32.177Z,24.80
2022-08-14T00:46:32.094Z,24.90
2022-08-14T00:49:15.411Z,24.90
2022-08-14T00:52:03.582Z,24.90
2022-08-14T00:54:47.336Z,25.00
2022-08-14T00:57:38.514Z,25.00
2022-08-14T01:00:37.085Z,24.90
2022-08-14T01:03:30.888Z,24.80
2022-08-14T01:06:30.340Z,24.70
2022-08-14T01:09:23.659Z,24.60
2022-08-14T01:12:13.405Z,24.70
2022-08-14T01:15:14.884Z,24.70
2022-08-14T01:18:22.260Z,24.60
2022-08-14T01:21:15.387Z,24.60
2022-08-14T01:24:07.433Z,24.60
2022-08-14T01:27:00.906Z,24.60
2022-08-14T01:30:03.825Z,24.60
2022-08-14T01:32:57.467Z,24.50
2022-08-14T01:36:04.435Z,24.40
2022-08-14T01:38:57.371Z,24.40
2022-08-14T01:41:58.138Z,24.40
2022-08-14T01:44:41.278Z,24.30
2022-08-14T01:47:37.349Z,24.60
2022-08-14T01:50:19.365Z,24.60
2022-08-14T01:53:14.588Z,24.50
2022-08-14T01:55:58.358Z,24.30
2022-08-14T01:58:57.553Z,24.20
2022-08-14T02:01:51.511Z,23.90
2022-08-14T02:04:55.581Z,23.60
2022-08-14T02:07:55.742Z,23.50
2022-08-14T02:11:13.386Z,23.60
2022-08-14T02:14:00.138Z,23.80
2022-08-14T02:17:04.426Z,23.90
2022-08-14T02:19:53.393Z,23.90
2022-08-14T02:22:47.876Z,24.00
2022-08-14T02:25:38.594Z,24.10
2022-08-14T02:28:58.134Z,24.00
2022-08-14T02:31:47.195Z,23.90
2022-08-14T02:34:36.308Z,23.90
2022-08-14T02:37:24.538Z,23.80
2022-08-14T02:40:32.522Z,24.00
2022-08-14T02:43:22.520Z,24.10
2022-08-14T02:46:10.402Z,24.10
2022-08-14T02:49:06.331Z,24.10
2022-08-14T02:51:54.407Z,24.00
2022-08-14T02:54:44.512Z,23.80
2022-08-14T02:57:39.288Z,23.80
2022-08-14T03:00:28.645Z,23.80
2022-08-14T03:03:17.519Z,23.60
2022-08-14T03:06:14.447Z,23.70
2022-08-14T03:09:08.490Z,23.80
2022-08-14T03:11:57.496Z,23.70
2022-08-14T03:14:48.492Z,23.50
2022-08-14T03:17:41.174Z,23.40
2022-08-14T03:20:44.537Z,23.40
2022-08-14T03:23:42.903Z,23.50
2022-08-14T03:26:30.976Z,23.40
2022-08-14T03:29:14.093Z,23.40
2022-08-14T03:32:01.521Z,23.60
2022-08-14T03:34:52.750Z,23.60
2022-08-14T03:39:10.482Z,23.70
2022-08-14T03:40:53.671Z,23.70
2022-08-14T03:43:43.506Z,23.60
2022-08-14T03:46:51.885Z,23.50
2022-08-14T03:49:34.057Z,23.60
2022-08-14T03:52:38.783Z,23.60
2022-08-14T03:55:28.442Z,23.70
2022-08-14T03:58:35.053Z,23.60
2022-08-14T04:01:41.585Z,23.50
2022-08-14T04:04:27.168Z,23.40
2022-08-14T04:07:21.524Z,23.30
2022-08-14T04:10:09.881Z,23.40
2022-08-14T04:12:58.425Z,23.50
2022-08-14T04:16:01.185Z,23.60
2022-08-14T04:18:47.043Z,23.40
2022-08-14T04:21:59.904Z,23.30
2022-08-14T04:24:53.173Z,22.80
2022-08-14T04:28:01.888Z,22.90
2022-08-14T04:30:50.551Z,22.90
2022-08-14T04:33:40.449Z,22.90
2022-08-14T04:36:28.571Z,23.10
2022-08-14T04:39:27.554Z,22.70
2022-08-14T04:42:35.558Z,22.50
2022-08-14T04:45:20.433Z,22.50
2022-08-14T04:48:39.173Z,22.30
2022-08-14T04:51:24.475Z,22.30
2022-08-14T04:54:06.382Z,22.20
2022-08-14T04:56:55.443Z,22.00
2022-08-14T04:59:43.589Z,21.90
2022-08-14T05:02:34.689Z,22.00
2022-08-14T05:05:24.975Z,22.40
2022-08-14T05:08:31.906Z,22.80
2022-08-14T05:11:36.799Z,22.90
2022-08-14T05:14:45.334Z,22.60
2022-08-14T05:17:31.906Z,22.80
2022-08-14T05:21:54.493Z,23.20
2022-08-14T05:23:37.321Z,23.10
2022-08-14T05:26:26.613Z,22.90
2022-08-14T05:29:14.716Z,22.90
2022-08-14T05:32:04.552Z,23.00
2022-08-14T05:34:52.670Z,22.80
2022-08-14T05:37:46.113Z,22.70
2022-08-14T05:40:36.678Z,22.70
2022-08-14T05:43:25.460Z,22.70
2022-08-14T05:46:29.734Z,22.80
2022-08-14T05:49:12.469Z,22.90
2022-08-14T05:52:02.207Z,23.20
2022-08-14T05:54:46.471Z,23.10
2022-08-14T05:57:38.631Z,23.00
2022-08-14T06:00:24.744Z,23.00
2022-08-14T06:03:18.615Z,22.80
2022-08-14T06:06:01.503Z,23.00
2022-08-14T06:08:49.603Z,23.30
2022-08-14T06:11:38.497Z,23.30
2022-08-14T06:14:29.773Z,23.50
2022-08-14T06:17:26.234Z,23.30
2022-08-14T06:20:16.522Z,23.20
2022-08-14T06:23:03.701Z,23.60
2022-08-14T06:25:53.400Z,23.90
2022-08-14T06:28:37.107Z,24.00
2022-08-14T06:31:37.510Z,24.10
2022-08-14T06:35:04.071Z,24.20
2022-08-14T06:37:33.964Z,24.30
2022-08-14T06:40:27.000Z,24.30
2022-08-14T06:43:17.723Z,24.50
2022-08-14T06:46:01.556Z,24.50
2022-08-14T06:48:45.855Z,24.40
2022-08-14T06:51:45.096Z,24.40
2022-08-14T06:54:36.559Z,24.50
2022-08-14T06:57:31.579Z,24.50
2022-08-14T07:00:31.374Z,24.70
2022-08-14T07:03:41.539Z,24.90
2022-08-14T07:06:46.795Z,25.10
2022-08-14T07:09:43.883Z,25.30
2022-08-14T07:12:54.464Z,25.30
2022-08-14T07:15:42.457Z,25.40
2022-08-14T07:18:27.635Z,25.40
2022-08-14T07:21:23.531Z,25.50
2022-08-14T07:24:22.014Z,25.50
2022-08-14T07:27:20.519Z,25.70
2022-08-14T07:30:05.083Z,25.70
2022-08-14T07:32:57.656Z,25.80
2022-08-14T07:35:58.507Z,25.80
2022-08-14T07:38:52.470Z,25.90
2022-08-14T07:41:44.387Z,26.00
2022-08-14T07:44:32.957Z,26.20
2022-08-14T07:47:33.670Z,26.30
2022-08-14T07:50:20.549Z,26.30
2022-08-14T07:53:08.711Z,26.30
2022-08-14T07:56:00.333Z,26.20
2022-08-14T07:58:58.907Z,26.40
2022-08-14T08:01:51.126Z,26.50
2022-08-14T08:04:34.249Z,26.60
2022-08-14T08:07:29.633Z,26.60
2022-08-14T08:11:01.333Z,26.90
2022-08-14T08:13:49.053Z,26.90
2022-08-14T08:16:51.597Z,27.00
2022-08-14T08:19:39.893Z,27.00
2022-08-14T08:22:32.457Z,27.40
2022-08-14T08:25:20.659Z,27.70
2022-08-14T08:28:19.751Z,28.10
2022-08-14T08:31:14.773Z,28.00
2022-08-14T08:34:03.785Z,28.20
2022-08-14T08:36:52.816Z,28.30
2022-08-14T08:40:01.648Z,28.30
2022-08-14T08:42:44.939Z,28.40
2022-08-14T08:45:29.632Z,28.60
2022-08-14T08:48:21.172Z,28.70
2022-08-14T08:51:37.541Z,28.90
2022-08-14T08:54:26.631Z,29.30
2022-08-14T08:57:26.585Z,29.40
2022-08-14T09:00:27.109Z,29.60
2022-08-14T09:03:22.568Z,29.50
2022-08-14T09:06:53.669Z,29.50
2022-08-14T09:09:33.881Z,29.20
2022-08-14T09:12:15.704Z,29.00
2022-08-14T09:15:12.184Z,29.30
2022-08-14T09:18:04.695Z,29.60
2022-08-14T09:20:58.889Z,29.60
2022-08-14T09:24:29.260Z,29.70
2022-08-14T09:27:01.588Z,29.70
2022-08-14T09:29:54.074Z,29.60
2022-08-14T09:33:09.213Z,29.80
2022-08-14T09:36:13.785Z,29.80
2022-08-14T09:39:23.070Z,30.00
2022-08-14T09:42:33.561Z,30.00
2022-08-14T09:45:23.602Z,30.00
2022-08-14T09:48:06.738Z,30.00
2022-08-14T09:54:17.919Z,30.00
2022-08-14T09:57:08.989Z,29.90
2022-08-14T09:59:59.833Z,29.80
2022-08-14T10:02:50.637Z,30.10
2022-08-14T10:05:42.811Z,30.20
2022-08-14T10:08:33.671Z,30.30
2022-08-14T10:11:31.059Z,30.40
2022-08-14T10:14:29.427Z,30.30
2022-08-14T10:17:38.487Z,30.50
2022-08-14T10:20:40.239Z,30.50
2022-08-14T10:23:35.099Z,30.70
2022-08-14T10:26:34.616Z,30.80
2022-08-14T10:29:24.209Z,30.90
2022-08-14T10:32:17.264Z,30.80
2022-08-14T10:35:15.984Z,31.10
2022-08-14T10:38:08.636Z,31.30
2022-08-14T10:40:59.354Z,31.00
2022-08-14T10:43:41.713Z,30.80
2022-08-14T10:47:39.513Z,31.00
2022-08-14T10:49:33.662Z,31.00
2022-08-14T10:52:31.679Z,31.30
2022-08-14T10:55:21.008Z,31.30
2022-08-14T10:58:11.993Z,31.30
2022-08-14T11:01:07.626Z,31.30
2022-08-14T11:03:56.244Z,31.10
2022-08-14T11:06:51.678Z,31.00
2022-08-14T11:09:42.108Z,31.00
2022-08-14T11:12:33.913Z,30.90
2022-08-14T11:15:22.716Z,30.90
2022-08-14T11:18:20.090Z,30.90
2022-08-14T11:21:09.744Z,31.10
2022-08-14T11:23:57.275Z,31.30
2022-08-14T11:26:48.863Z,31.30
2022-08-14T11:29:36.011Z,31.50
2022-08-14T11:32:26.852Z,31.30
2022-08-14T11:35:09.648Z,31.40
2022-08-14T11:37:59.514Z,31.50
2022-08-14T11:40:49.645Z,31.70
2022-08-14T11:43:35.856Z,31.70
2022-08-14T11:46:37.653Z,31.60
2022-08-14T11:49:34.892Z,31.70
2022-08-14T11:52:22.761Z,31.70
2022-08-14T11:55:16.867Z,31.70
2022-08-14T11:58:23.766Z,31.70
2022-08-14T12:01:15.873Z,31.80
2022-08-14T12:03:57.969Z,31.90
2022-08-14T12:07:02.635Z,31.90
2022-08-14T12:09:52.808Z,31.90
2022-08-14T12:12:45.741Z,31.70
2022-08-14T12:15:37.955Z,31.70
2022-08-14T12:18:44.890Z,31.70
2022-08-14T12:21:32.807Z,32.00
2022-08-14T12:24:35.944Z,32.00
2022-08-14T12:27:25.306Z,32.10
2022-08-14T12:30:06.784Z,32.10
2022-08-14T12:32:56.306Z,32.30
2022-08-14T12:35:49.782Z,32.40
2022-08-14T12:38:43.694Z,32.20
2022-08-14T12:41:41.806Z,32.20
2022-08-14T12:44:37.985Z,32.50
2022-08-14T12:47:32.750Z,32.70
2022-08-14T12:50:20.717Z,32.60
2022-08-14T12:53:14.451Z,32.40
2022-08-14T12:56:22.088Z,32.40
2022-08-14T12:59:22.945Z,32.20
2022-08-14T13:02:11.788Z,32.60
2022-08-14T13:05:04.457Z,32.50
2022-08-14T13:07:59.300Z,32.60
2022-08-14T13:10:51.698Z,32.60
2022-08-14T13:13:44.501Z,32.60
2022-08-14T13:16:38.210Z,32.70
2022-08-14T13:19:24.338Z,32.90
2022-08-14T13:22:29.143Z,32.90
2022-08-14T13:25:23.696Z,32.90
2022-08-14T13:28:33.086Z,32.90
2022-08-14T13:31:41.070Z,32.70
2022-08-14T13:34:45.487Z,32.50
2022-08-14T13:37:49.017Z,32.90
2022-08-14T13:40:47.130Z,32.80
2022-08-14T13:43:49.411Z,32.90
2022-08-14T13:46:52.971Z,33.00
2022-08-14T13:49:57.854Z,33.20
2022-08-14T13:53:02.796Z,33.10
2022-08-14T13:55:59.948Z,33.20
2022-08-14T13:59:02.573Z,33.20
2022-08-14T14:01:57.212Z,33.10
2022-08-14T14:04:49.359Z,33.20
2022-08-14T14:07:50.009Z,33.10
2022-08-14T14:10:55.208Z,33.00
2022-08-14T14:14:03.617Z,33.10
2022-08-14T14:17:03.033Z,33.20
2022-08-14T14:19:59.747Z,33.20
2022-08-14T14:23:01.940Z,33.50
2022-08-14T14:25:57.409Z,33.60
2022-08-14T14:28:54.842Z,33.70
2022-08-14T14:32:08.258Z,33.60
2022-08-14T14:35:11.281Z,33.40
2022-08-14T14:38:03.461Z,33.40
2022-08-14T14:41:04.081Z,33.60
2022-08-14T14:43:58.943Z,33.50
2022-08-14T14:47:08.987Z,33.60
2022-08-14T14:50:13.548Z,33.60
2022-08-14T14:53:18.896Z,33.60
2022-08-14T14:56:50.916Z,33.70
2022-08-14T14:59:28.337Z,33.70
2022-08-14T15:02:48.435Z,33.60
2022-08-14T15:05:45.474Z,33.60
2022-08-14T15:08:59.979Z,33.30
2022-08-14T15:11:58.065Z,33.50
2022-08-14T15:14:56.204Z,33.40
2022-08-14T15:18:03.125Z,33.60
2022-08-14T15:20:57.095Z,33.30
2022-08-14T15:23:45.651Z,33.10
2022-08-14T15:26:58.654Z,33.30
2022-08-14T15:29:57.791Z,33.60
2022-08-14T15:32:54.107Z,33.50
2022-08-14T15:35:49.442Z,33.40
2022-08-14T15:38:43.425Z,33.30
2022-08-14T15:41:48.575Z,33.10
2022-08-14T15:45:01.373Z,33.00
2022-08-14T15:51:02.998Z,33.20
2022-08-14T15:53:58.140Z,32.90
2022-08-14T15:57:00.407Z,32.90
2022-08-14T16:00:11.513Z,32.90
2022-08-14T16:03:35.206Z,33.00
2022-08-14T16:06:54.741Z,32.80
2022-08-14T16:10:27.872Z,32.90
2022-08-14T16:13:41.183Z,33.00
2022-08-14T16:17:00.385Z,32.70
2022-08-14T16:19:54.943Z,32.70
2022-08-14T16:22:57.705Z,32.70
2022-08-14T16:26:01.714Z,32.80
2022-08-14T16:29:03.232Z,32.90
2022-08-14T16:32:32.545Z,33.00
2022-08-14T16:35:43.271Z,33.00
2022-08-14T16:38:46.062Z,32.80
2022-08-14T16:41:56.115Z,32.70
2022-08-14T16:44:55.931Z,32.60
2022-08-14T16:47:50.793Z,32.60
2022-08-14T16:50:52.965Z,32.50
2022-08-14T16:53:44.823Z,32.30
2022-08-14T16:56:37.947Z,32.30
2022-08-14T16:59:21.809Z,32.20
2022-08-14T17:02:19.373Z,32.20
2022-08-14T17:05:21.883Z,32.10
2022-08-14T17:08:41.489Z,32.00
2022-08-14T17:11:45.904Z,32.10
2022-08-14T17:14:48.466Z,32.10
2022-08-14T17:17:39.859Z,32.10
2022-08-14T17:20:54.710Z,32.20
2022-08-14T17:23:39.911Z,32.20
2022-08-14T17:26:44.387Z,32.00
2022-08-14T17:29:29.623Z,31.90
2022-08-14T17:32:28.465Z,31.70
2022-08-14T17:35:16.381Z,31.80
2022-08-14T17:38:38.643Z,31.60
2022-08-14T17:41:37.504Z,31.80
2022-08-14T17:44:44.957Z,31.70
2022-08-14T17:47:34.103Z,31.60
2022-08-14T17:50:59.976Z,31.50
2022-08-14T17:53:53.405Z,31.30
2022-08-14T17:56:49.832Z,31.30
2022-08-14T17:59:41.273Z,31.40
2022-08-14T18:02:33.831Z,31.40
2022-08-14T18:06:06.533Z,31.40
2022-08-14T18:08:41.189Z,31.10
2022-08-14T18:11:45.456Z,31.00
2022-08-14T18:14:31.653Z,31.10
2022-08-14T18:17:29.887Z,31.00
2022-08-14T18:21:23.803Z,30.90
2022-08-14T18:23:29.837Z,30.80
2022-08-14T18:26:36.295Z,30.50
2022-08-14T18:29:31.881Z,30.50
2022-08-14T18:32:59.860Z,30.40
2022-08-14T18:35:46.072Z,30.40
2022-08-14T18:38:59.916Z,30.30
2022-08-14T18:41:48.020Z,30.20
2022-08-14T18:45:12.739Z,30.20
2022-08-14T18:48:51.596Z,30.10
2022-08-14T18:51:45.867Z,30.00
2022-08-14T18:54:32.913Z,29.90
2022-08-14T18:57:21.924Z,29.90
2022-08-14T19:00:51.395Z,29.80
2022-08-14T19:04:09.835Z,29.80
2022-08-14T19:07:06.953Z,29.80
2022-08-14T19:10:16.902Z,29.70
2022-08-14T19:13:20.455Z,29.60
2022-08-14T19:16:16.433Z,29.60
2022-08-14T19:19:01.121Z,29.60
2022-08-14T19:22:02.018Z,29.60
2022-08-14T19:24:55.896Z,29.70
2022-08-14T19:27:47.018Z,29.70
2022-08-14T19:30:32.852Z,29.90
2022-08-14T19:34:01.818Z,30.00
2022-08-14T19:37:06.135Z,30.20
2022-08-14T19:39:57.127Z,30.10
2022-08-14T19:42:52.867Z,30.00
2022-08-14T19:45:46.883Z,29.90
2022-08-14T19:48:29.087Z,29.80
2022-08-14T19:51:23.889Z,29.70
2022-08-14T19:54:15.105Z,29.80
2022-08-14T19:56:57.097Z,29.80
2022-08-14T19:59:57.624Z,29.70
2022-08-14T20:02:48.749Z,29.70
2022-08-14T20:05:45.481Z,29.60
2022-08-14T20:10:58.391Z,29.60
2022-08-14T20:12:01.498Z,29.50
2022-08-14T20:14:58.514Z,29.50
2022-08-14T20:17:52.992Z,29.40
2022-08-14T20:20:45.448Z,29.40
2022-08-14T20:23:38.185Z,29.30
2022-08-14T20:26:30.756Z,29.20
2022-08-14T20:29:15.013Z,29.20
2022-08-14T20:32:04.172Z,29.20
2022-08-14T20:34:51.521Z,29.20
2022-08-14T20:37:42.377Z,29.10
2022-08-14T20:40:25.999Z,29.10
2022-08-14T20:43:41.620Z,29.10
2022-08-14T20:46:38.920Z,29.10
2022-08-14T20:49:27.089Z,28.90
2022-08-14T20:52:22.916Z,28.90
2022-08-14T20:55:45.199Z,28.90
2022-08-14T20:58:45.910Z,28.80
2022-08-14T21:01:50.924Z,28.90
2022-08-14T21:04:47.403Z,28.80
2022-08-14T21:07:36.536Z,28.70
2022-08-14T21:10:44.559Z,28.70
2022-08-14T21:14:20.549Z,28.60
2022-08-14T21:16:58.646Z,28.70
2022-08-14T21:19:40.920Z,28.70
2022-08-14T21:22:30.110Z,28.70
2022-08-14T21:25:16.004Z,28.70
2022-08-14T21:28:29.182Z,28.60
2022-08-14T21:31:20.048Z,28.60
2022-08-14T21:34:31.643Z,28.50
2022-08-14T21:37:24.931Z,28.40
2022-08-14T21:40:41.091Z,28.40
2022-08-14T21:43:33.945Z,28.20
2022-08-14T21:46:28.447Z,28.20
2022-08-14T21:49:18.028Z,28.20
2022-08-14T21:52:50.792Z,28.20
2022-08-14T21:55:13.254Z,28.10
2022-08-14T21:58:53.259Z,28.10
2022-08-14T22:01:02.967Z,28.00
2022-08-14T22:03:54.894Z,27.80
2022-08-14T22:06:51.931Z,27.90
2022-08-14T22:09:55.132Z,27.90
2022-08-14T22:13:00.927Z,27.90
2022-08-14T22:15:59.753Z,27.80
2022-08-14T22:18:46.424Z,27.70
2022-08-14T22:21:43.911Z,27.70
2022-08-14T22:24:37.932Z,27.60
2022-08-14T22:27:33.151Z,27.50
2022-08-14T22:30:24.190Z,27.50
2022-08-14T22:33:13.581Z,27.50
2022-08-14T22:36:24.869Z,27.50
2022-08-14T22:39:11.001Z,27.50
2022-08-14T22:42:19.547Z,27.40
2022-08-14T22:45:12.308Z,27.40
2022-08-14T22:48:01.973Z,27.30
2022-08-14T22:50:53.652Z,27.20
2022-08-14T22:53:43.048Z,27.30
2022-08-14T22:56:33.181Z,27.30
2022-08-14T22:59:18.965Z,27.20
2022-08-14T23:02:29.984Z,27.30
2022-08-14T23:05:38.652Z,27.20
2022-08-14T23:08:59.890Z,27.20
2022-08-14T23:11:43.970Z,27.20
2022-08-14T23:14:34.141Z,27.10
2022-08-14T23:17:39.607Z,27.30
2022-08-14T23:20:30.117Z,27.30
2022-08-14T23:23:27.004Z,27.10
2022-08-14T23:26:47.843Z,27.00
2022-08-14T23:29:18.122Z,26.90
2022-08-14T23:32:18.704Z,26.80
2022-08-14T23:35:00.998Z,26.90
2022-08-14T23:37:57.990Z,26.90
2022-08-14T23:40:47.382Z,26.90
2022-08-14T23:43:35.027Z,27.00
2022-08-14T23:46:34.828Z,27.10
2022-08-14T23:49:17.987Z,27.00
2022-08-14T23:52:50.916Z,27.00
2022-08-14T23:55:12.011Z,26.90
2022-08-14T23:58:00.619Z,26.90
